Flight Track Log - Related Links

Times and Time Zones

All times are in EST time to prevent confusion due to time zone crossing. See the ERR880 flight status page for this flight to view local times or setup timezone preferences in your user account.


Time Position Orientation Groundspeed Altitude Reporting Facility
EST Latitude Longitude Course Direction KTS MPH feet Rate Location/Type
Tue 10:19:00 PM 60.8428 -150.3320 208° Southwest  Level Estimated
Tue 10:20:00 PM 60.7875 -150.3869 206° Southwest  Level Estimated
Tue 10:20:02 PM 60.9333 -150.1833 201° Southwest 200 230 11,700  Level Anchorage Center
Tue 10:21:00 PM 60.7318 -150.4400 205° Southwest  Level FlightAware Approximate
Tue 10:21:02 PM 60.9000 -150.2333 216° Southwest 190 219 12,000  Level Anchorage Center
Tue 10:22:00 PM 60.6765 -150.4947 206° Southwest  Level Estimated
Tue 10:22:02 PM 60.8500 -150.3000 213° Southwest 220 253 12,000  Level Anchorage Center
Tue 10:23:00 PM 60.6210 -150.5485 205° Southwest  Level FlightAware Approximate
Tue 10:23:03 PM 60.8000 -150.3833 219° Southwest 220 253 12,000  Level Anchorage Center
Tue 10:24:00 PM 60.5655 -150.6021 205° Southwest  Level FlightAware Approximate
Tue 10:24:03 PM 60.7500 -150.4500 213° Southwest 220 253 12,000  Level Anchorage Center
Tue 10:25:00 PM 60.5129 -150.6435 201° Southwest  Level FlightAware Approximate
Tue 10:25:03 PM 60.6833 -150.5333 211° Southwest 230 265 12,000  Level Anchorage Center
Tue 10:26:04 PM 60.6333 -150.6000 213° Southwest 230 265 12,000  Level Anchorage Center
Tue 10:27:04 PM 60.5833 -150.6833 219° Southwest 230 265 12,000  Level Anchorage Center
Tue 10:28:04 PM 60.5333 -150.7667 219° Southwest 230 265 12,000 50 Level Anchorage Center
Tue 10:29:05 PM 60.4833 -150.8333 213° Southwest 220 253 12,100 50 Climbing Anchorage Center
Tue 10:30:05 PM 60.4333 -150.9167 219° Southwest 220 253 12,100  Level Anchorage Center
Tue 10:31:06 PM 60.3667 -150.9833 206° Southwest 230 265 12,100  Level Anchorage Center
Tue 10:32:06 PM 60.3167 -151.0667 220° Southwest 240 276 12,100  Level Anchorage Center
Tue 10:33:06 PM 60.2667 -151.1500 220° Southwest 240 276 12,100  Level Anchorage Center
Tue 10:34:07 PM 60.2167 -151.2167 214° Southwest 230 265 12,100  Level Anchorage Center
Tue 10:35:07 PM 60.1500 -151.2833 206° Southwest 240 276 12,100 -50 Level Anchorage Center
Tue 10:36:07 PM 60.1000 -151.3833 225° Southwest 220 253 12,000 -50 Descending Anchorage Center
Tue 10:37:08 PM 60.0333 -151.4500 207° Southwest 230 265 12,000  Level Anchorage Center
Tue 10:38:08 PM 59.9833 -151.5333 220° Southwest 230 265 12,000  Level Anchorage Center
Tue 10:39:08 PM 59.9333 -151.6000 214° Southwest 240 276 12,000  Level Anchorage Center
Tue 10:40:09 PM 59.8833 -151.6833 220° Southwest 230 265 12,000 -595 Level Anchorage Center
Tue 10:41:09 PM 59.8333 -151.7500 214° Southwest 240 276 10,800 -1,339 Descending Anchorage Center
Tue 10:42:10 PM 59.7667 -151.8333 212° Southwest 220 253 9,300 -1,488 Descending Anchorage Center
Tue 10:43:10 PM 59.7333 -151.8833 217° Southwest 190 219 7,800 -1,500 Descending Anchorage Center
Tue 10:44:10 PM 59.6833 -151.9500 214° Southwest 180 207 6,300 -1,488 Descending Anchorage Center
Tue 10:45:11 PM 59.6500 -152.0000 217° Southwest 180 207 4,800 -1,438 Descending Anchorage Center
Tue 10:46:11 PM 59.6000 -152.0500 207° Southwest 170 196 3,400 -700 Descending Anchorage Center
Tue 10:47:11 PM 59.5667 -152.0000 143° Southeast 160 184 3,400  Level Anchorage Center
Tue 10:48:12 PM 59.5333 -151.9500 143° Southeast 150 173 3,400  Level Anchorage Center
Tue 10:49:12 PM 59.5000 -151.9167 153° Southeast 140 161 3,400 -400 Level Anchorage Center
Tue 10:50:12 PM 59.5000 -151.8500 90° East 150 173 2,600 -694 Descending Anchorage Center
Tue 10:51:13 PM 59.5167 -151.7833 64° Northeast 110 127 2,000 -298 Descending Anchorage Center
Tue 10:52:13 PM 59.5500 -151.7333 37° Northeast 130 150 2,000  Level Anchorage Center
Tue 10:53:13 PM 59.5667 -151.6500 68° East 180 207 2,000  Level Anchorage Center

Login

Don't have an account? Register now (free) for customized features, flight alerts, and more!